Accueil
METAR-TAF:

METAR-TAF

Aéroports :

Bagdad, Irak

Aéroport international de Bagdad

latitude: 33-15-45N, longitude: 44-14-04E, altitude: 35 m

Observation

Le bulletin a été fait il y a 23 minutes, à 20:00 UTC
Vent 5 kt de nord
Température 17°C
Humidité 68%
Pression 1008 hPa
Visibilité 10 km ou plus
Quelques nuages à une hauteur de 2500 ft, Cumulonimbus.
Nuages épars à une hauteur de 3000 ft
orage

METAR: ORBI 222000Z 36005KT 9999 R33R/1000N TS FEW025CB SCT030 17/11 Q1008 NOSIG

Heure: 23:23 (20:23 UTC)

Prévision

Le bulletin a été fait il y a 3 heures et 23 minutes, à 17:00 UTC
Prévision valable du 22 à 18 UTC au 23 à 18 UTC
Vent 8 kt de nord
Visibilité: 8000 m
Nuages épars à une hauteur de 3000 ft

TAF: ORBI 221700Z 2218/2318 36008KT 8000 SCT030

Observations et prévisions météorologiques de plus de 4000 aéroports (messages METAR et TAF).

Les stations disponibles sont représentées par des disques jaunes et rouges sur la carte.

Passer la souris dessus pour voir le nom de la station.

Cliquer dessus pour voir les observations et prévisions météorologiques.

Pour changer de carte: cliquez sur les boutons verts avec une croix noire pour zoomer, sur le bouton vert avec un tiret pour effectuer un zoom arrière, ou sur les flèches vertes pour les cartes adjacentes.


METAR-TAF: